sensor_id;sensor_type;location;lat;lon;timestamp;temperature;humidity
27559;DHT22;15002;52.028;5.670;2023-03-01T00:01:26;3.10;95.70
27559;DHT22;15002;52.028;5.670;2023-03-01T00:03:53;3.00;96.30
27559;DHT22;15002;52.028;5.670;2023-03-01T00:06:19;3.20;96.00
27559;DHT22;15002;52.028;5.670;2023-03-01T00:08:45;3.10;96.10
27559;DHT22;15002;52.028;5.670;2023-03-01T00:11:26;2.90;96.10
27559;DHT22;15002;52.028;5.670;2023-03-01T00:13:53;3.00;96.50
27559;DHT22;15002;52.028;5.670;2023-03-01T00:16:30;3.10;96.20
27559;DHT22;15002;52.028;5.670;2023-03-01T00:18:56;3.00;96.10
27559;DHT22;15002;52.028;5.670;2023-03-01T00:21:23;3.20;96.30
27559;DHT22;15002;52.028;5.670;2023-03-01T00:23:49;3.40;95.80
27559;DHT22;15002;52.028;5.670;2023-03-01T00:26:16;3.20;95.90
27559;DHT22;15002;52.028;5.670;2023-03-01T00:28:43;3.40;95.80
27559;DHT22;15002;52.028;5.670;2023-03-01T00:31:14;3.30;95.90
27559;DHT22;15002;52.028;5.670;2023-03-01T00:33:41;3.30;95.70
27559;DHT22;15002;52.028;5.670;2023-03-01T00:36:07;3.30;95.90
27559;DHT22;15002;52.028;5.670;2023-03-01T00:38:41;3.20;95.80
27559;DHT22;15002;52.028;5.670;2023-03-01T00:41:08;3.20;96.30
27559;DHT22;15002;52.028;5.670;2023-03-01T00:43:35;3.20;96.10
27559;DHT22;15002;52.028;5.670;2023-03-01T00:46:10;3.30;96.00
27559;DHT22;15002;52.028;5.670;2023-03-01T00:48:37;3.00;96.30
27559;DHT22;15002;52.028;5.670;2023-03-01T00:53:35;3.00;96.60
27559;DHT22;15002;52.028;5.670;2023-03-01T00:56:02;2.90;96.40
27559;DHT22;15002;52.028;5.670;2023-03-01T00:58:28;2.90;96.90
27559;DHT22;15002;52.028;5.670;2023-03-01T01:00:54;2.60;97.00
27559;DHT22;15002;52.028;5.670;2023-03-01T01:03:20;2.80;97.10
27559;DHT22;15002;52.028;5.670;2023-03-01T01:05:45;2.70;97.00
27559;DHT22;15002;52.028;5.670;2023-03-01T01:08:11;2.60;97.40
27559;DHT22;15002;52.028;5.670;2023-03-01T01:10:37;2.90;97.00
27559;DHT22;15002;52.028;5.670;2023-03-01T01:13:03;2.60;97.10
27559;DHT22;15002;52.028;5.670;2023-03-01T01:15:32;2.50;97.70
27559;DHT22;15002;52.028;5.670;2023-03-01T01:17:58;2.70;97.50
27559;DHT22;15002;52.028;5.670;2023-03-01T01:20:24;2.70;97.10
27559;DHT22;15002;52.028;5.670;2023-03-01T01:22:49;2.80;97.30
27559;DHT22;15002;52.028;5.670;2023-03-01T01:25:16;2.80;97.00
27559;DHT22;15002;52.028;5.670;2023-03-01T01:27:42;2.80;97.20
27559;DHT22;15002;52.028;5.670;2023-03-01T01:30:08;2.80;97.00
27559;DHT22;15002;52.028;5.670;2023-03-01T01:32:34;2.50;97.50
27559;DHT22;15002;52.028;5.670;2023-03-01T01:34:59;2.40;97.70
27559;DHT22;15002;52.028;5.670;2023-03-01T01:37:25;2.60;97.60
27559;DHT22;15002;52.028;5.670;2023-03-01T01:40:00;3.00;97.10
27559;DHT22;15002;52.028;5.670;2023-03-01T01:42:27;2.90;97.10
27559;DHT22;15002;52.028;5.670;2023-03-01T01:47:58;2.60;97.50
27559;DHT22;15002;52.028;5.670;2023-03-01T01:50:25;2.70;97.50
27559;DHT22;15002;52.028;5.670;2023-03-01T01:52:53;2.50;97.70
27559;DHT22;15002;52.028;5.670;2023-03-01T01:55:24;2.70;97.60
27559;DHT22;15002;52.028;5.670;2023-03-01T01:57:55;2.30;98.00
27559;DHT22;15002;52.028;5.670;2023-03-01T02:00:24;2.20;98.40
27559;DHT22;15002;52.028;5.670;2023-03-01T02:02:55;2.40;98.30
27559;DHT22;15002;52.028;5.670;2023-03-01T02:08:26;2.30;98.30
27559;DHT22;15002;52.028;5.670;2023-03-01T02:10:53;2.30;98.30
27559;DHT22;15002;52.028;5.670;2023-03-01T02:13:19;2.20;98.00
27559;DHT22;15002;52.028;5.670;2023-03-01T02:15:45;2.10;98.50
27559;DHT22;15002;52.028;5.670;2023-03-01T02:18:14;2.30;98.30
27559;DHT22;15002;52.028;5.670;2023-03-01T02:21:02;2.00;98.50
27559;DHT22;15002;52.028;5.670;2023-03-01T02:23:30;2.10;98.70
27559;DHT22;15002;52.028;5.670;2023-03-01T02:28:29;2.30;98.50
27559;DHT22;15002;52.028;5.670;2023-03-01T02:30:55;2.40;98.10
27559;DHT22;15002;52.028;5.670;2023-03-01T02:33:40;2.60;97.90
27559;DHT22;15002;52.028;5.670;2023-03-01T02:36:17;2.50;97.80
27559;DHT22;15002;52.028;5.670;2023-03-01T02:38:43;2.60;97.90
27559;DHT22;15002;52.028;5.670;2023-03-01T02:41:11;2.40;97.80
27559;DHT22;15002;52.028;5.670;2023-03-01T02:43:39;2.40;97.70
27559;DHT22;15002;52.028;5.670;2023-03-01T02:46:13;2.00;98.40
27559;DHT22;15002;52.028;5.670;2023-03-01T02:48:43;2.00;98.60
27559;DHT22;15002;52.028;5.670;2023-03-01T02:57:01;2.10;98.80
27559;DHT22;15002;52.028;5.670;2023-03-01T02:59:30;1.90;98.80
27559;DHT22;15002;52.028;5.670;2023-03-01T03:01:56;1.90;99.10
27559;DHT22;15002;52.028;5.670;2023-03-01T03:04:22;1.90;99.10
27559;DHT22;15002;52.028;5.670;2023-03-01T03:06:49;2.00;98.90
27559;DHT22;15002;52.028;5.670;2023-03-01T03:09:16;2.30;98.60
27559;DHT22;15002;52.028;5.670;2023-03-01T03:11:42;2.10;98.60
27559;DHT22;15002;52.028;5.670;2023-03-01T03:14:09;2.10;98.70
27559;DHT22;15002;52.028;5.670;2023-03-01T03:19:07;1.90;99.00
27559;DHT22;15002;52.028;5.670;2023-03-01T03:21:33;2.20;98.60
27559;DHT22;15002;52.028;5.670;2023-03-01T03:23:59;2.10;98.50
27559;DHT22;15002;52.028;5.670;2023-03-01T03:26:25;2.10;98.50
27559;DHT22;15002;52.028;5.670;2023-03-01T03:28:51;2.10;99.20
27559;DHT22;15002;52.028;5.670;2023-03-01T03:31:17;2.10;98.90
27559;DHT22;15002;52.028;5.670;2023-03-01T03:33:43;2.10;98.90
27559;DHT22;15002;52.028;5.670;2023-03-01T03:36:08;1.90;99.20
27559;DHT22;15002;52.028;5.670;2023-03-01T03:38:39;1.90;99.40
27559;DHT22;15002;52.028;5.670;2023-03-01T03:41:07;1.90;99.70
27559;DHT22;15002;52.028;5.670;2023-03-01T03:43:35;2.00;99.30
27559;DHT22;15002;52.028;5.670;2023-03-01T03:46:01;1.90;99.50
27559;DHT22;15002;52.028;5.670;2023-03-01T03:48:33;2.00;99.60
27559;DHT22;15002;52.028;5.670;2023-03-01T03:50:59;2.00;99.60
27559;DHT22;15002;52.028;5.670;2023-03-01T03:53:26;2.10;99.30
27559;DHT22;15002;52.028;5.670;2023-03-01T03:55:53;1.90;99.70
27559;DHT22;15002;52.028;5.670;2023-03-01T03:58:21;1.90;99.70
27559;DHT22;15002;52.028;5.670;2023-03-01T04:00:49;2.10;99.50
27559;DHT22;15002;52.028;5.670;2023-03-01T04:03:16;2.20;99.30
27559;DHT22;15002;52.028;5.670;2023-03-01T04:05:42;2.20;99.20
27559;DHT22;15002;52.028;5.670;2023-03-01T04:08:08;2.30;99.10
27559;DHT22;15002;52.028;5.670;2023-03-01T04:10:43;1.90;99.40
27559;DHT22;15002;52.028;5.670;2023-03-01T04:13:17;2.00;99.70
27559;DHT22;15002;52.028;5.670;2023-03-01T04:15:45;2.20;99.40
27559;DHT22;15002;52.028;5.670;2023-03-01T04:18:13;2.20;99.10
27559;DHT22;15002;52.028;5.670;2023-03-01T04:20:39;2.00;99.80
27559;DHT22;15002;52.028;5.670;2023-03-01T04:23:11;2.10;99.50
27559;DHT22;15002;52.028;5.670;2023-03-01T04:25:45;2.00;99.70
27559;DHT22;15002;52.028;5.670;2023-03-01T04:28:12;2.20;99.40
27559;DHT22;15002;52.028;5.670;2023-03-01T04:30:38;2.30;99.30
27559;DHT22;15002;52.028;5.670;2023-03-01T04:33:06;2.00;99.50
27559;DHT22;15002;52.028;5.670;2023-03-01T04:35:32;1.90;99.80
27559;DHT22;15002;52.028;5.670;2023-03-01T04:37:58;1.80;99.90
27559;DHT22;15002;52.028;5.670;2023-03-01T04:40:24;1.90;99.90
27559;DHT22;15002;52.028;5.670;2023-03-01T04:42:50;1.90;99.90
27559;DHT22;15002;52.028;5.670;2023-03-01T04:45:16;2.00;99.80
27559;DHT22;15002;52.028;5.670;2023-03-01T04:47:43;2.10;99.70
27559;DHT22;15002;52.028;5.670;2023-03-01T04:50:12;1.90;99.90
27559;DHT22;15002;52.028;5.670;2023-03-01T04:52:38;2.00;99.90
27559;DHT22;15002;52.028;5.670;2023-03-01T04:55:04;1.90;99.90
27559;DHT22;15002;52.028;5.670;2023-03-01T04:57:30;1.90;99.90
27559;DHT22;15002;52.028;5.670;2023-03-01T04:59:56;2.00;99.90
27559;DHT22;15002;52.028;5.670;2023-03-01T05:02:22;2.10;99.90
27559;DHT22;15002;52.028;5.670;2023-03-01T05:04:47;2.40;99.50
27559;DHT22;15002;52.028;5.670;2023-03-01T05:07:13;2.30;99.30
27559;DHT22;15002;52.028;5.670;2023-03-01T05:09:48;2.20;99.50
27559;DHT22;15002;52.028;5.670;2023-03-01T05:12:14;2.00;99.80
27559;DHT22;15002;52.028;5.670;2023-03-01T05:14:40;2.10;99.90
27559;DHT22;15002;52.028;5.670;2023-03-01T05:17:07;2.20;99.50
27559;DHT22;15002;52.028;5.670;2023-03-01T05:19:33;2.20;99.50
27559;DHT22;15002;52.028;5.670;2023-03-01T05:21:59;2.20;99.50
27559;DHT22;15002;52.028;5.670;2023-03-01T05:24:30;2.30;99.50
27559;DHT22;15002;52.028;5.670;2023-03-01T05:26:56;2.30;99.60
27559;DHT22;15002;52.028;5.670;2023-03-01T05:29:23;2.30;99.30
27559;DHT22;15002;52.028;5.670;2023-03-01T05:31:57;2.30;99.40
27559;DHT22;15002;52.028;5.670;2023-03-01T05:34:27;2.40;99.30
27559;DHT22;15002;52.028;5.670;2023-03-01T05:36:54;2.50;99.10
27559;DHT22;15002;52.028;5.670;2023-03-01T05:39:21;2.50;98.90
27559;DHT22;15002;52.028;5.670;2023-03-01T05:41:48;2.30;99.50
27559;DHT22;15002;52.028;5.670;2023-03-01T05:44:16;2.30;99.40
27559;DHT22;15002;52.028;5.670;2023-03-01T05:46:42;2.20;99.60
27559;DHT22;15002;52.028;5.670;2023-03-01T05:49:08;2.10;99.60
27559;DHT22;15002;52.028;5.670;2023-03-01T05:51:33;2.20;99.70
27559;DHT22;15002;52.028;5.670;2023-03-01T05:53:59;2.10;99.90
27559;DHT22;15002;52.028;5.670;2023-03-01T05:56:25;1.80;99.90
27559;DHT22;15002;52.028;5.670;2023-03-01T05:58:50;1.70;99.90
27559;DHT22;15002;52.028;5.670;2023-03-01T06:01:16;1.80;99.90
27559;DHT22;15002;52.028;5.670;2023-03-01T06:03:42;1.90;99.90
27559;DHT22;15002;52.028;5.670;2023-03-01T06:06:08;1.90;99.90
27559;DHT22;15002;52.028;5.670;2023-03-01T06:08:33;2.00;99.90
27559;DHT22;15002;52.028;5.670;2023-03-01T06:10:59;2.20;99.90
27559;DHT22;15002;52.028;5.670;2023-03-01T06:13:24;2.10;99.90
27559;DHT22;15002;52.028;5.670;2023-03-01T06:15:50;2.20;99.90
27559;DHT22;15002;52.028;5.670;2023-03-01T06:18:16;1.90;99.90
27559;DHT22;15002;52.028;5.670;2023-03-01T06:20:42;1.90;99.90
27559;DHT22;15002;52.028;5.670;2023-03-01T06:23:07;1.80;99.90
27559;DHT22;15002;52.028;5.670;2023-03-01T06:25:33;1.90;99.90
27559;DHT22;15002;52.028;5.670;2023-03-01T06:27:58;1.90;99.90
27559;DHT22;15002;52.028;5.670;2023-03-01T06:30:25;1.80;99.90
27559;DHT22;15002;52.028;5.670;2023-03-01T06:32:52;2.00;99.90
27559;DHT22;15002;52.028;5.670;2023-03-01T06:35:18;2.20;99.90
27559;DHT22;15002;52.028;5.670;2023-03-01T06:37:45;2.20;99.90
27559;DHT22;15002;52.028;5.670;2023-03-01T06:40:11;2.10;99.90
27559;DHT22;15002;52.028;5.670;2023-03-01T06:42:40;2.10;99.90
27559;DHT22;15002;52.028;5.670;2023-03-01T06:45:07;2.10;99.90
27559;DHT22;15002;52.028;5.670;2023-03-01T06:47:33;2.10;99.90
27559;DHT22;15002;52.028;5.670;2023-03-01T06:50:00;1.80;99.90
27559;DHT22;15002;52.028;5.670;2023-03-01T06:52:26;1.80;99.90
27559;DHT22;15002;52.028;5.670;2023-03-01T06:54:52;2.00;99.90
27559;DHT22;15002;52.028;5.670;2023-03-01T06:57:17;1.90;99.90
27559;DHT22;15002;52.028;5.670;2023-03-01T06:59:43;2.00;99.90
27559;DHT22;15002;52.028;5.670;2023-03-01T07:02:10;2.10;99.90
27559;DHT22;15002;52.028;5.670;2023-03-01T07:04:37;2.30;99.90
27559;DHT22;15002;52.028;5.670;2023-03-01T07:07:03;2.50;99.90
27559;DHT22;15002;52.028;5.670;2023-03-01T07:09:28;2.60;99.90
27559;DHT22;15002;52.028;5.670;2023-03-01T07:11:54;2.90;99.90
27559;DHT22;15002;52.028;5.670;2023-03-01T07:14:20;2.90;99.80
27559;DHT22;15002;52.028;5.670;2023-03-01T07:16:46;3.20;99.70
27559;DHT22;15002;52.028;5.670;2023-03-01T07:19:12;3.50;99.10
27559;DHT22;15002;52.028;5.670;2023-03-01T07:21:37;4.00;98.80
27559;DHT22;15002;52.028;5.670;2023-03-01T07:24:06;4.20;97.80
27559;DHT22;15002;52.028;5.670;2023-03-01T07:26:31;4.30;97.20
27559;DHT22;15002;52.028;5.670;2023-03-01T07:28:59;4.30;97.20
27559;DHT22;15002;52.028;5.670;2023-03-01T07:31:25;4.10;97.30
27559;DHT22;15002;52.028;5.670;2023-03-01T07:33:53;4.10;97.60
27559;DHT22;15002;52.028;5.670;2023-03-01T07:36:19;4.10;97.70
27559;DHT22;15002;52.028;5.670;2023-03-01T07:38:45;4.20;97.30
27559;DHT22;15002;52.028;5.670;2023-03-01T07:41:10;3.90;97.60
27559;DHT22;15002;52.028;5.670;2023-03-01T07:43:36;3.90;97.90
27559;DHT22;15002;52.028;5.670;2023-03-01T07:46:03;3.90;97.50
27559;DHT22;15002;52.028;5.670;2023-03-01T07:48:30;4.10;97.60
27559;DHT22;15002;52.028;5.670;2023-03-01T07:51:00;4.20;97.30
27559;DHT22;15002;52.028;5.670;2023-03-01T07:53:26;4.10;97.50
27559;DHT22;15002;52.028;5.670;2023-03-01T07:56:09;4.00;97.50
27559;DHT22;15002;52.028;5.670;2023-03-01T07:58:36;4.00;97.60
27559;DHT22;15002;52.028;5.670;2023-03-01T08:01:03;3.90;97.90
27559;DHT22;15002;52.028;5.670;2023-03-01T08:03:29;3.80;98.00
27559;DHT22;15002;52.028;5.670;2023-03-01T08:05:55;3.80;98.10
27559;DHT22;15002;52.028;5.670;2023-03-01T08:08:21;4.00;98.20
27559;DHT22;15002;52.028;5.670;2023-03-01T08:10:46;3.90;98.10
27559;DHT22;15002;52.028;5.670;2023-03-01T08:13:12;4.20;97.80
27559;DHT22;15002;52.028;5.670;2023-03-01T08:15:37;4.80;97.30
27559;DHT22;15002;52.028;5.670;2023-03-01T08:18:03;4.60;96.90
27559;DHT22;15002;52.028;5.670;2023-03-01T08:20:29;4.90;96.90
27559;DHT22;15002;52.028;5.670;2023-03-01T08:22:54;5.10;96.40
27559;DHT22;15002;52.028;5.670;2023-03-01T08:25:20;5.00;96.10
27559;DHT22;15002;52.028;5.670;2023-03-01T08:27:46;5.20;95.90
27559;DHT22;15002;52.028;5.670;2023-03-01T08:30:12;5.20;96.20
27559;DHT22;15002;52.028;5.670;2023-03-01T08:32:39;5.50;95.80
27559;DHT22;15002;52.028;5.670;2023-03-01T08:35:05;5.10;95.80
27559;DHT22;15002;52.028;5.670;2023-03-01T08:37:30;5.30;96.40
27559;DHT22;15002;52.028;5.670;2023-03-01T08:39:59;5.70;95.90
27559;DHT22;15002;52.028;5.670;2023-03-01T08:42:25;5.70;95.10
27559;DHT22;15002;52.028;5.670;2023-03-01T08:44:51;6.00;95.00
27559;DHT22;15002;52.028;5.670;2023-03-01T08:47:17;6.10;94.80
27559;DHT22;15002;52.028;5.670;2023-03-01T08:49:42;5.60;95.30
27559;DHT22;15002;52.028;5.670;2023-03-01T08:52:08;5.60;95.70
27559;DHT22;15002;52.028;5.670;2023-03-01T08:54:34;5.60;95.70
27559;DHT22;15002;52.028;5.670;2023-03-01T08:57:02;5.90;95.50
27559;DHT22;15002;52.028;5.670;2023-03-01T08:59:27;6.20;95.10
27559;DHT22;15002;52.028;5.670;2023-03-01T09:01:55;6.20;95.10
27559;DHT22;15002;52.028;5.670;2023-03-01T09:04:21;6.40;94.70
27559;DHT22;15002;52.028;5.670;2023-03-01T09:06:47;6.60;94.80
27559;DHT22;15002;52.028;5.670;2023-03-01T09:09:17;6.70;94.30
27559;DHT22;15002;52.028;5.670;2023-03-01T09:11:44;6.90;93.80
27559;DHT22;15002;52.028;5.670;2023-03-01T09:14:12;6.50;93.90
27559;DHT22;15002;52.028;5.670;2023-03-01T09:16:38;6.20;94.40
27559;DHT22;15002;52.028;5.670;2023-03-01T09:19:05;6.20;94.70
27559;DHT22;15002;52.028;5.670;2023-03-01T09:21:31;6.40;94.70
27559;DHT22;15002;52.028;5.670;2023-03-01T09:23:58;6.50;94.10
27559;DHT22;15002;52.028;5.670;2023-03-01T09:26:24;6.70;94.10
27559;DHT22;15002;52.028;5.670;2023-03-01T09:28:52;6.70;94.30
27559;DHT22;15002;52.028;5.670;2023-03-01T09:31:20;6.80;94.10
27559;DHT22;15002;52.028;5.670;2023-03-01T09:33:48;7.10;93.60
27559;DHT22;15002;52.028;5.670;2023-03-01T09:36:16;7.50;93.40
27559;DHT22;15002;52.028;5.670;2023-03-01T09:38:42;7.50;92.20
27559;DHT22;15002;52.028;5.670;2023-03-01T09:41:48;7.60;92.30
27559;DHT22;15002;52.028;5.670;2023-03-01T09:44:40;7.70;90.90
27559;DHT22;15002;52.028;5.670;2023-03-01T09:47:19;8.00;90.10
27559;DHT22;15002;52.028;5.670;2023-03-01T09:50:02;8.20;90.00
27559;DHT22;15002;52.028;5.670;2023-03-01T09:52:40;8.40;88.70
27559;DHT22;15002;52.028;5.670;2023-03-01T09:55:15;7.90;89.70
27559;DHT22;15002;52.028;5.670;2023-03-01T09:57:54;8.40;87.90
27559;DHT22;15002;52.028;5.670;2023-03-01T10:00:42;8.70;86.60
27559;DHT22;15002;52.028;5.670;2023-03-01T10:03:34;8.00;86.50
27559;DHT22;15002;52.028;5.670;2023-03-01T10:06:12;7.70;88.40
27559;DHT22;15002;52.028;5.670;2023-03-01T10:08:58;8.10;87.00
27559;DHT22;15002;52.028;5.670;2023-03-01T10:11:31;8.00;86.30
27559;DHT22;15002;52.028;5.670;2023-03-01T10:14:42;7.70;85.00
27559;DHT22;15002;52.028;5.670;2023-03-01T10:17:23;7.50;85.90
27559;DHT22;15002;52.028;5.670;2023-03-01T10:19:50;7.50;85.60
27559;DHT22;15002;52.028;5.670;2023-03-01T10:22:28;7.30;86.30
27559;DHT22;15002;52.028;5.670;2023-03-01T10:24:56;7.50;86.80
27559;DHT22;15002;52.028;5.670;2023-03-01T10:27:23;7.70;86.60
27559;DHT22;15002;52.028;5.670;2023-03-01T10:32:25;8.10;84.90
27559;DHT22;15002;52.028;5.670;2023-03-01T10:34:51;8.20;84.30
27559;DHT22;15002;52.028;5.670;2023-03-01T10:37:19;7.40;84.00
27559;DHT22;15002;52.028;5.670;2023-03-01T10:40:05;7.50;86.00
27559;DHT22;15002;52.028;5.670;2023-03-01T10:42:38;7.20;86.30
27559;DHT22;15002;52.028;5.670;2023-03-01T10:45:32;7.50;85.80
27559;DHT22;15002;52.028;5.670;2023-03-01T10:50:44;7.90;83.10
27559;DHT22;15002;52.028;5.670;2023-03-01T10:53:44;7.80;84.70
27559;DHT22;15002;52.028;5.670;2023-03-01T10:56:09;8.10;85.00
27559;DHT22;15002;52.028;5.670;2023-03-01T10:58:36;8.90;83.50
27559;DHT22;15002;52.028;5.670;2023-03-01T11:01:06;8.60;81.30
27559;DHT22;15002;52.028;5.670;2023-03-01T11:03:38;8.80;82.40
27559;DHT22;15002;52.028;5.670;2023-03-01T11:08:46;9.00;81.00
27559;DHT22;15002;52.028;5.670;2023-03-01T11:13:59;8.70;81.50
27559;DHT22;15002;52.028;5.670;2023-03-01T11:16:37;8.40;82.30
27559;DHT22;15002;52.028;5.670;2023-03-01T11:21:38;8.20;83.00
27559;DHT22;15002;52.028;5.670;2023-03-01T11:24:11;8.20;83.30
27559;DHT22;15002;52.028;5.670;2023-03-01T11:26:40;8.10;83.30
27559;DHT22;15002;52.028;5.670;2023-03-01T11:29:18;8.40;82.30
27559;DHT22;15002;52.028;5.670;2023-03-01T11:31:47;8.70;82.00
27559;DHT22;15002;52.028;5.670;2023-03-01T11:34:23;8.50;81.40
27559;DHT22;15002;52.028;5.670;2023-03-01T11:36:58;8.40;81.90
27559;DHT22;15002;52.028;5.670;2023-03-01T11:39:37;8.10;82.20
27559;DHT22;15002;52.028;5.670;2023-03-01T11:42:18;7.70;82.90
27559;DHT22;15002;52.028;5.670;2023-03-01T11:44:50;7.90;83.00
27559;DHT22;15002;52.028;5.670;2023-03-01T11:47:55;8.00;83.00
27559;DHT22;15002;52.028;5.670;2023-03-01T11:58:34;7.70;84.50
27559;DHT22;15002;52.028;5.670;2023-03-01T12:45:20;7.90;81.90
27559;DHT22;15002;52.028;5.670;2023-03-01T12:50:46;8.80;78.40
27559;DHT22;15002;52.028;5.670;2023-03-01T12:53:49;8.90;79.30
27559;DHT22;15002;52.028;5.670;2023-03-01T12:56:18;8.90;79.40
27559;DHT22;15002;52.028;5.670;2023-03-01T13:04:25;8.70;78.80
27559;DHT22;15002;52.028;5.670;2023-03-01T13:09:59;8.90;78.60
27559;DHT22;15002;52.028;5.670;2023-03-01T13:12:42;9.10;78.70
27559;DHT22;15002;52.028;5.670;2023-03-01T13:26:16;8.50;79.80
27559;DHT22;15002;52.028;5.670;2023-03-01T13:33:56;8.50;79.50
27559;DHT22;15002;52.028;5.670;2023-03-01T13:52:42;8.50;79.30
27559;DHT22;15002;52.028;5.670;2023-03-01T13:57:43;9.00;79.40
27559;DHT22;15002;52.028;5.670;2023-03-01T14:03:08;9.20;79.30
27559;DHT22;15002;52.028;5.670;2023-03-01T14:05:34;9.10;80.10
27559;DHT22;15002;52.028;5.670;2023-03-01T14:08:02;8.90;80.40
27559;DHT22;15002;52.028;5.670;2023-03-01T14:19:34;8.60;78.00
27559;DHT22;15002;52.028;5.670;2023-03-01T14:24:56;8.60;77.20
27559;DHT22;15002;52.028;5.670;2023-03-01T14:27:25;8.60;78.70
27559;DHT22;15002;52.028;5.670;2023-03-01T14:29:56;8.70;79.40
27559;DHT22;15002;52.028;5.670;2023-03-01T14:32:28;9.20;77.90
27559;DHT22;15002;52.028;5.670;2023-03-01T14:34:55;9.10;78.10
27559;DHT22;15002;52.028;5.670;2023-03-01T14:37:27;9.40;75.20
27559;DHT22;15002;52.028;5.670;2023-03-01T14:39:53;9.30;74.50
27559;DHT22;15002;52.028;5.670;2023-03-01T14:42:25;9.20;74.30
27559;DHT22;15002;52.028;5.670;2023-03-01T14:44:54;9.20;75.60
27559;DHT22;15002;52.028;5.670;2023-03-01T14:47:40;9.20;75.20
27559;DHT22;15002;52.028;5.670;2023-03-01T14:50:32;9.30;75.10
27559;DHT22;15002;52.028;5.670;2023-03-01T14:53:03;9.50;75.10
27559;DHT22;15002;52.028;5.670;2023-03-01T14:55:31;9.70;74.20
27559;DHT22;15002;52.028;5.670;2023-03-01T14:57:58;9.40;73.20
27559;DHT22;15002;52.028;5.670;2023-03-01T15:00:29;9.60;73.80
27559;DHT22;15002;52.028;5.670;2023-03-01T15:02:57;9.00;75.90
27559;DHT22;15002;52.028;5.670;2023-03-01T15:05:29;9.00;76.70
27559;DHT22;15002;52.028;5.670;2023-03-01T15:07:58;9.00;77.10
27559;DHT22;15002;52.028;5.670;2023-03-01T15:10:27;9.10;76.20
27559;DHT22;15002;52.028;5.670;2023-03-01T15:12:53;9.50;74.60
27559;DHT22;15002;52.028;5.670;2023-03-01T15:15:21;9.50;74.60
27559;DHT22;15002;52.028;5.670;2023-03-01T15:17:56;9.90;73.70
27559;DHT22;15002;52.028;5.670;2023-03-01T15:20:25;9.90;73.40
27559;DHT22;15002;52.028;5.670;2023-03-01T15:22:53;9.60;72.40
27559;DHT22;15002;52.028;5.670;2023-03-01T15:25:27;9.80;72.70
27559;DHT22;15002;52.028;5.670;2023-03-01T15:27:55;9.60;72.70
27559;DHT22;15002;52.028;5.670;2023-03-01T15:30:29;9.70;73.60
27559;DHT22;15002;52.028;5.670;2023-03-01T15:33:20;9.80;73.90
27559;DHT22;15002;52.028;5.670;2023-03-01T15:35:51;9.50;74.30
27559;DHT22;15002;52.028;5.670;2023-03-01T15:38:53;9.40;75.30
27559;DHT22;15002;52.028;5.670;2023-03-01T15:41:28;9.40;75.20
27559;DHT22;15002;52.028;5.670;2023-03-01T15:43:56;9.30;76.50
27559;DHT22;15002;52.028;5.670;2023-03-01T15:46:34;8.60;77.50
27559;DHT22;15002;52.028;5.670;2023-03-01T15:51:52;9.40;76.40
27559;DHT22;15002;52.028;5.670;2023-03-01T15:54:21;9.40;76.30
27559;DHT22;15002;52.028;5.670;2023-03-01T15:56:47;9.60;76.10
27559;DHT22;15002;52.028;5.670;2023-03-01T15:59:13;9.40;76.00
27559;DHT22;15002;52.028;5.670;2023-03-01T16:01:42;9.20;76.80
27559;DHT22;15002;52.028;5.670;2023-03-01T16:04:13;9.40;76.20
27559;DHT22;15002;52.028;5.670;2023-03-01T16:06:55;9.40;76.20
27559;DHT22;15002;52.028;5.670;2023-03-01T16:09:23;9.50;75.70
27559;DHT22;15002;52.028;5.670;2023-03-01T16:11:49;9.50;75.80
27559;DHT22;15002;52.028;5.670;2023-03-01T16:14:15;9.70;75.40
27559;DHT22;15002;52.028;5.670;2023-03-01T16:16:42;9.40;75.80
27559;DHT22;15002;52.028;5.670;2023-03-01T16:19:08;9.30;76.90
27559;DHT22;15002;52.028;5.670;2023-03-01T16:21:34;9.50;76.40
27559;DHT22;15002;52.028;5.670;2023-03-01T16:24:00;9.60;76.30
27559;DHT22;15002;52.028;5.670;2023-03-01T16:26:26;9.70;75.50
27559;DHT22;15002;52.028;5.670;2023-03-01T16:28:55;9.70;76.10
27559;DHT22;15002;52.028;5.670;2023-03-01T16:31:22;9.90;75.70
27559;DHT22;15002;52.028;5.670;2023-03-01T16:33:48;10.00;75.40
27559;DHT22;15002;52.028;5.670;2023-03-01T16:36:20;10.00;75.70
27559;DHT22;15002;52.028;5.670;2023-03-01T16:38:46;10.00;76.00
27559;DHT22;15002;52.028;5.670;2023-03-01T16:41:14;9.60;76.80
27559;DHT22;15002;52.028;5.670;2023-03-01T16:43:41;9.70;77.50
27559;DHT22;15002;52.028;5.670;2023-03-01T16:46:16;9.50;78.40
27559;DHT22;15002;52.028;5.670;2023-03-01T16:48:42;9.40;79.20
27559;DHT22;15002;52.028;5.670;2023-03-01T16:51:09;9.40;80.10
27559;DHT22;15002;52.028;5.670;2023-03-01T16:53:35;9.50;80.00
27559;DHT22;15002;52.028;5.670;2023-03-01T16:56:02;9.40;80.60
27559;DHT22;15002;52.028;5.670;2023-03-01T16:58:28;9.40;80.90
27559;DHT22;15002;52.028;5.670;2023-03-01T17:00:54;9.40;81.00
27559;DHT22;15002;52.028;5.670;2023-03-01T17:03:22;9.30;82.00
27559;DHT22;15002;52.028;5.670;2023-03-01T17:05:48;9.40;81.70
27559;DHT22;15002;52.028;5.670;2023-03-01T17:08:14;9.20;82.40
27559;DHT22;15002;52.028;5.670;2023-03-01T17:10:40;9.10;82.80
27559;DHT22;15002;52.028;5.670;2023-03-01T17:13:08;8.80;83.70
27559;DHT22;15002;52.028;5.670;2023-03-01T17:15:34;8.60;84.60
27559;DHT22;15002;52.028;5.670;2023-03-01T17:18:00;8.80;84.20
27559;DHT22;15002;52.028;5.670;2023-03-01T17:20:27;8.70;84.10
27559;DHT22;15002;52.028;5.670;2023-03-01T17:22:52;8.80;84.60
27559;DHT22;15002;52.028;5.670;2023-03-01T17:25:19;8.70;84.80
27559;DHT22;15002;52.028;5.670;2023-03-01T17:27:45;8.70;84.40
27559;DHT22;15002;52.028;5.670;2023-03-01T17:30:12;8.60;84.90
27559;DHT22;15002;52.028;5.670;2023-03-01T17:32:38;8.30;85.40
27559;DHT22;15002;52.028;5.670;2023-03-01T17:35:04;8.40;85.80
27559;DHT22;15002;52.028;5.670;2023-03-01T17:37:30;8.40;86.00
27559;DHT22;15002;52.028;5.670;2023-03-01T17:39:56;8.20;86.20
27559;DHT22;15002;52.028;5.670;2023-03-01T17:42:21;8.20;86.10
27559;DHT22;15002;52.028;5.670;2023-03-01T17:44:47;8.00;86.50
27559;DHT22;15002;52.028;5.670;2023-03-01T17:47:13;8.10;86.50
27559;DHT22;15002;52.028;5.670;2023-03-01T17:49:39;7.80;87.50
27559;DHT22;15002;52.028;5.670;2023-03-01T17:52:04;7.80;87.30
27559;DHT22;15002;52.028;5.670;2023-03-01T17:54:30;7.90;87.60
27559;DHT22;15002;52.028;5.670;2023-03-01T17:56:58;8.10;87.00
27559;DHT22;15002;52.028;5.670;2023-03-01T17:59:23;7.80;87.30
27559;DHT22;15002;52.028;5.670;2023-03-01T18:01:49;7.80;87.70
27559;DHT22;15002;52.028;5.670;2023-03-01T18:04:15;7.70;88.30
27559;DHT22;15002;52.028;5.670;2023-03-01T18:06:43;7.60;88.40
27559;DHT22;15002;52.028;5.670;2023-03-01T18:09:09;7.80;88.40
27559;DHT22;15002;52.028;5.670;2023-03-01T18:11:36;8.00;87.50
27559;DHT22;15002;52.028;5.670;2023-03-01T18:14:02;7.90;87.70
27559;DHT22;15002;52.028;5.670;2023-03-01T18:16:28;8.00;87.30
27559;DHT22;15002;52.028;5.670;2023-03-01T18:18:56;7.70;88.00
27559;DHT22;15002;52.028;5.670;2023-03-01T18:21:21;7.50;89.00
27559;DHT22;15002;52.028;5.670;2023-03-01T18:23:48;7.60;88.90
27559;DHT22;15002;52.028;5.670;2023-03-01T18:26:14;7.50;88.80